Holmes Beach, Florida
Current Conditions -  °F | °C
As of 4:53 PM on Thursday 23 Oct 2014 (Local Time) from KSRQ Reporting Station
Clear Clear  
Wind Chill: 82°   Ceiling: Unl
Heat Index: 82°   Visibility: 10mi
Dew Point: 58°   Wind: 9mph
Humidity: 44%   Direction: 90°E
Pressure: 29.87"   Gusts: NA
Location:  27.5°N, 82.71°W
Report Text: KSRQ 232053Z AUTO 09008KT 10SM CLR 28/14 A2987 RMK AO2 SLP115 T02780144 56018
Loading
Personal Weather Stations






























Interactive Weather Map
Tropical Storm Tracking
New forecast layout! Learn more

10-Day Weather Forecast

Advertisements
Track Severe Weather on mobile